Time;durP1;ratioP1;P1;durP2;ratioP2;P2;SDS_P1;SDS_P2;PMS_P1;PMS_P2;Temp;Humidity;BMP_temperature;BMP_pressure;BME280_temperature;BME280_humidity;BME280_pressure;Samples;Min_cycle;Max_cycle;Signal;HPM_P1;HPM_P2
2023/08/27 00:00:28;;;;;;;9.23;7.75;;;14.40;99.90;;;;;;5050519;28;20076;-82
2023/08/27 00:02:54;;;;;;;12.73;9.18;;;14.40;99.90;;;;;;5054831;28;20041;-81
2023/08/27 00:05:20;;;;;;;10.65;8.23;;;14.30;99.90;;;;;;5050473;28;20450;-81
2023/08/27 00:07:45;;;;;;;11.40;9.32;;;14.30;99.90;;;;;;5066621;28;20049;-81
2023/08/27 00:10:12;;;;;;;9.32;8.13;;;14.30;99.90;;;;;;5038742;28;20099;-81
2023/08/27 00:12:37;;;;;;;12.57;9.88;;;14.30;99.90;;;;;;5053441;28;20040;-81
2023/08/27 00:15:04;;;;;;;11.80;9.18;;;14.30;99.90;;;;;;5041057;28;20200;-81
2023/08/27 00:17:30;;;;;;;11.25;10.05;;;14.30;99.90;;;;;;5050263;28;20071;-81
2023/08/27 00:19:55;;;;;;;11.50;8.77;;;14.30;99.90;;;;;;5056206;28;20075;-80
2023/08/27 00:22:21;;;;;;;10.60;9.50;;;14.30;99.90;;;;;;5052018;28;20033;-81
2023/08/27 00:24:47;;;;;;;10.73;9.38;;;14.30;99.90;;;;;;5052298;28;20043;-81
2023/08/27 00:27:13;;;;;;;9.90;8.90;;;14.30;99.90;;;;;;5054090;28;20441;-81
2023/08/27 00:29:38;;;;;;;10.73;8.98;;;14.30;99.90;;;;;;5050623;28;20040;-81
2023/08/27 00:32:05;;;;;;;13.93;8.25;;;14.30;99.90;;;;;;5054887;28;20040;-81
2023/08/27 00:34:32;;;;;;;9.07;7.80;;;14.30;99.90;;;;;;5054500;28;20484;-81
2023/08/27 00:36:59;;;;;;;9.65;8.02;;;14.30;99.90;;;;;;5053500;28;20351;-81
2023/08/27 00:39:25;;;;;;;11.73;8.98;;;14.30;99.90;;;;;;5054558;28;20041;-81
2023/08/27 00:41:51;;;;;;;10.43;9.32;;;14.30;99.90;;;;;;5040151;28;20043;-81
2023/08/27 00:44:16;;;;;;;12.07;9.98;;;14.40;99.90;;;;;;5050609;28;20488;-80
2023/08/27 00:46:43;;;;;;;12.88;9.38;;;14.30;99.90;;;;;;5051096;28;20048;-80
2023/08/27 00:49:10;;;;;;;10.57;9.48;;;14.30;99.90;;;;;;5049497;28;20036;-81
2023/08/27 00:51:38;;;;;;;10.35;6.93;;;14.30;99.90;;;;;;5053636;28;20186;-81
2023/08/27 00:54:04;;;;;;;12.75;9.57;;;14.30;99.90;;;;;;5054247;28;20445;-81
2023/08/27 00:56:31;;;;;;;11.00;8.18;;;14.20;99.90;;;;;;5035678;28;20044;-81
2023/08/27 00:58:57;;;;;;;11.55;9.88;;;14.20;99.90;;;;;;5066839;28;20051;-81
2023/08/27 01:01:23;;;;;;;7.45;6.38;;;14.10;99.90;;;;;;5034712;28;20028;-81
2023/08/27 01:03:49;;;;;;;11.43;9.13;;;14.20;99.90;;;;;;5054842;28;20049;-81
2023/08/27 01:06:15;;;;;;;10.55;7.10;;;14.20;99.90;;;;;;5052599;28;20460;-81
2023/08/27 01:08:59;;;;;;;9.38;8.38;;;14.20;99.90;;;;;;5047139;28;20045;-81
2023/08/27 01:11:42;;;;;;;10.38;6.68;;;14.20;99.90;;;;;;5048190;28;20047;-80
2023/08/27 01:14:10;;;;;;;14.38;9.23;;;14.10;99.90;;;;;;5046975;28;20095;-81
2023/08/27 01:16:36;;;;;;;10.02;7.97;;;14.10;99.90;;;;;;5051710;28;20033;-81
2023/08/27 01:19:09;;;;;;;9.82;8.80;;;14.20;99.90;;;;;;5030275;28;20048;-81
2023/08/27 01:21:35;;;;;;;12.85;9.10;;;14.20;99.90;;;;;;5086842;28;20455;-81
2023/08/27 01:24:00;;;;;;;10.02;8.25;;;14.10;99.90;;;;;;5055184;28;20148;-80
2023/08/27 01:26:35;;;;;;;12.05;10.07;;;14.10;99.90;;;;;;5051763;28;20040;-81
2023/08/27 01:29:11;;;;;;;10.50;9.05;;;14.10;99.90;;;;;;5048729;28;20078;-80
2023/08/27 01:31:43;;;;;;;12.10;10.80;;;14.10;99.90;;;;;;5048619;28;20033;-80
2023/08/27 01:34:12;;;;;;;11.85;8.63;;;14.10;99.90;;;;;;5087896;28;20270;-81
2023/08/27 01:36:38;;;;;;;10.10;7.40;;;14.10;99.90;;;;;;5052804;28;20033;-80
2023/08/27 01:39:04;;;;;;;12.75;10.02;;;14.10;99.90;;;;;;5051064;28;20045;-80
2023/08/27 01:41:30;;;;;;;13.60;9.73;;;14.10;99.90;;;;;;5060015;28;20041;-81
2023/08/27 01:43:55;;;;;;;11.77;7.72;;;14.10;99.90;;;;;;5061341;28;20120;-81
2023/08/27 01:46:21;;;;;;;11.38;9.40;;;14.10;99.90;;;;;;5040567;28;20067;-80
2023/08/27 01:48:47;;;;;;;17.00;10.18;;;14.10;99.90;;;;;;5052715;28;20062;-81
2023/08/27 01:51:12;;;;;;;14.93;9.32;;;14.20;99.90;;;;;;5053955;28;20256;-81
2023/08/27 01:53:38;;;;;;;12.63;9.20;;;14.20;99.90;;;;;;5057400;28;20082;-81
2023/08/27 01:56:05;;;;;;;13.95;9.30;;;14.20;99.90;;;;;;5052348;28;20036;-81
2023/08/27 01:58:31;;;;;;;12.40;9.43;;;14.20;99.90;;;;;;5092232;28;20032;-81
2023/08/27 02:00:56;;;;;;;12.45;8.48;;;14.20;99.90;;;;;;5081376;28;20041;-81
2023/08/27 02:03:22;;;;;;;15.40;10.95;;;14.20;99.90;;;;;;5047045;28;20043;-80
2023/08/27 02:05:48;;;;;;;10.73;8.40;;;14.20;99.90;;;;;;5051398;28;20041;-80
2023/08/27 02:08:14;;;;;;;9.77;6.97;;;14.20;99.90;;;;;;5061663;28;20450;-81
2023/08/27 02:10:39;;;;;;;13.65;10.25;;;14.20;99.90;;;;;;5054584;28;20399;-79
2023/08/27 02:13:05;;;;;;;10.95;9.43;;;14.30;99.90;;;;;;5051805;28;20055;-80
2023/08/27 02:15:31;;;;;;;15.43;10.60;;;14.20;99.90;;;;;;5050626;28;20166;-80
2023/08/27 02:17:56;;;;;;;9.82;7.80;;;14.10;99.90;;;;;;5057537;28;20037;-80
2023/08/27 02:20:22;;;;;;;10.73;9.63;;;14.20;99.90;;;;;;5053727;28;20396;-80
2023/08/27 02:22:48;;;;;;;13.38;10.32;;;14.10;99.90;;;;;;5053127;28;20502;-81
2023/08/27 02:25:14;;;;;;;7.10;5.60;;;14.10;99.90;;;;;;5053655;28;20080;-80
2023/08/27 02:27:39;;;;;;;8.35;7.45;;;14.10;99.90;;;;;;5084859;28;20130;-80
2023/08/27 02:30:06;;;;;;;12.75;10.07;;;14.10;99.90;;;;;;5047885;28;20049;-80
2023/08/27 02:32:31;;;;;;;12.60;11.25;;;14.20;99.90;;;;;;5047108;28;20048;-80
2023/08/27 02:34:57;;;;;;;12.95;9.82;;;14.10;99.90;;;;;;5049398;28;20388;-81
2023/08/27 02:37:23;;;;;;;10.45;8.00;;;14.10;99.90;;;;;;5056896;28;20032;-81
2023/08/27 02:39:48;;;;;;;10.60;9.32;;;14.10;99.90;;;;;;5030994;28;20557;-80
2023/08/27 02:42:14;;;;;;;11.57;10.18;;;14.00;99.90;;;;;;5055129;28;20549;-81
2023/08/27 02:44:40;;;;;;;10.68;9.43;;;14.00;99.90;;;;;;5040234;28;20045;-80
2023/08/27 02:47:05;;;;;;;8.52;5.75;;;14.00;99.90;;;;;;5046721;28;20101;-81
2023/08/27 02:49:31;;;;;;;13.23;10.35;;;14.00;99.90;;;;;;5056654;28;20519;-81
2023/08/27 02:51:57;;;;;;;11.52;10.00;;;14.00;99.90;;;;;;5029689;28;20472;-81
2023/08/27 02:54:22;;;;;;;8.43;6.85;;;14.00;99.90;;;;;;5058695;28;20255;-80
2023/08/27 02:56:48;;;;;;;11.45;10.25;;;14.00;99.90;;;;;;5088375;28;20047;-81
2023/08/27 02:59:13;;;;;;;14.02;10.32;;;14.00;99.90;;;;;;5043683;28;20041;-80
2023/08/27 03:01:39;;;;;;;12.20;9.27;;;13.90;99.90;;;;;;5039668;28;20044;-80
2023/08/27 03:04:05;;;;;;;10.75;8.57;;;13.90;99.90;;;;;;5055814;28;20051;-80
2023/08/27 03:06:30;;;;;;;10.93;8.90;;;14.00;99.90;;;;;;5056800;28;20041;-80
2023/08/27 03:08:56;;;;;;;10.82;8.77;;;13.90;99.90;;;;;;5055289;28;20083;-81
2023/08/27 03:11:22;;;;;;;13.10;9.00;;;13.90;99.90;;;;;;5054853;28;20444;-80
2023/08/27 03:13:48;;;;;;;9.25;8.05;;;13.90;99.90;;;;;;5053831;28;20453;-80
2023/08/27 03:16:14;;;;;;;11.85;10.13;;;13.90;99.90;;;;;;5061033;28;20052;-81
2023/08/27 03:18:40;;;;;;;8.30;6.60;;;13.90;99.90;;;;;;5055154;28;20033;-80
2023/08/27 03:21:05;;;;;;;8.95;7.68;;;13.90;99.90;;;;;;5053826;28;20074;-81
2023/08/27 03:23:34;;;;;;;13.80;10.18;;;13.90;99.90;;;;;;5040738;28;20490;-81
2023/08/27 03:26:00;;;;;;;14.07;10.82;;;13.90;99.90;;;;;;5072261;28;20056;-80
2023/08/27 03:28:25;;;;;;;12.00;8.35;;;13.90;99.90;;;;;;5053928;28;20036;-81
2023/08/27 03:30:51;;;;;;;9.60;8.60;;;13.80;99.90;;;;;;5040823;28;20040;-81
2023/08/27 03:33:17;;;;;;;13.52;10.27;;;13.80;99.90;;;;;;5089466;28;20040;-80
2023/08/27 03:35:51;;;;;;;11.85;10.40;;;13.90;99.90;;;;;;5050230;28;20041;-81
2023/08/27 03:38:17;;;;;;;;;;;13.80;99.90;;;;;;5056789;28;20517;-81
2023/08/27 03:40:50;;;;;;;11.82;8.52;;;13.80;99.90;;;;;;5086214;28;19917;-81
2023/08/27 03:43:16;;;;;;;11.63;6.85;;;13.80;99.90;;;;;;5059818;28;20067;-81
2023/08/27 03:45:43;;;;;;;10.77;8.70;;;13.80;99.90;;;;;;5055397;28;20074;-81
2023/08/27 03:48:09;;;;;;;13.70;9.85;;;13.80;99.90;;;;;;5045306;28;20053;-81
2023/08/27 03:50:38;;;;;;;13.10;10.25;;;13.80;99.90;;;;;;5062363;28;20579;-81
2023/08/27 03:53:07;;;;;;;11.30;9.48;;;13.80;99.90;;;;;;5053633;28;20052;-81
2023/08/27 03:55:40;;;;;;;12.38;10.13;;;13.80;99.90;;;;;;5053924;28;20070;-81
2023/08/27 03:58:09;;;;;;;13.27;10.63;;;13.80;99.90;;;;;;5056790;28;20047;-81
2023/08/27 04:00:35;;;;;;;12.02;9.88;;;13.80;99.90;;;;;;5068231;28;20041;-81
2023/08/27 04:03:02;;;;;;;12.38;10.60;;;13.80;99.90;;;;;;5057286;28;20041;-81
2023/08/27 04:05:28;;;;;;;11.55;9.73;;;13.80;99.90;;;;;;5049291;28;20124;-81
2023/08/27 04:07:53;;;;;;;17.73;11.25;;;13.80;99.90;;;;;;5049997;28;20112;-81
2023/08/27 04:10:19;;;;;;;12.77;10.05;;;13.80;99.90;;;;;;5049498;28;20040;-81
2023/08/27 04:12:45;;;;;;;14.40;10.30;;;13.80;99.90;;;;;;5051651;28;20033;-81
2023/08/27 04:15:10;;;;;;;11.25;9.40;;;13.80;99.90;;;;;;5050109;28;20123;-81
2023/08/27 04:17:36;;;;;;;11.90;9.40;;;13.90;99.90;;;;;;5053776;28;20033;-81
2023/08/27 04:20:03;;;;;;;16.27;10.63;;;13.80;99.90;;;;;;5044798;28;20048;-81
2023/08/27 04:22:28;;;;;;;11.70;7.82;;;13.80;99.90;;;;;;5051108;28;20526;-81
2023/08/27 04:24:55;;;;;;;11.70;7.90;;;13.90;99.90;;;;;;5057992;28;20147;-81
2023/08/27 04:27:20;;;;;;;16.67;10.55;;;13.90;99.90;;;;;;5033234;28;20041;-81
2023/08/27 04:29:46;;;;;;;13.93;10.65;;;13.90;99.90;;;;;;5085456;28;20059;-81
2023/08/27 04:32:12;;;;;;;12.55;9.05;;;13.90;99.90;;;;;;5049597;28;20037;-81
2023/08/27 04:34:38;;;;;;;15.40;10.75;;;13.80;99.90;;;;;;5049476;28;20044;-81
2023/08/27 04:37:03;;;;;;;10.70;9.15;;;13.90;99.90;;;;;;5048632;28;20145;-81
2023/08/27 04:39:32;;;;;;;13.00;8.82;;;14.20;99.90;;;;;;5053775;28;20109;-80
2023/08/27 04:41:58;;;;;;;12.15;10.02;;;13.80;99.90;;;;;;5051033;28;20482;-81
2023/08/27 04:44:26;;;;;;;9.70;7.88;;;13.80;99.90;;;;;;5055551;28;20075;-80
2023/08/27 04:46:52;;;;;;;11.38;9.35;;;13.80;99.90;;;;;;5049699;28;20106;-81
2023/08/27 04:49:18;;;;;;;11.38;9.98;;;13.70;99.90;;;;;;5087005;28;20040;-80
2023/08/27 04:51:43;;;;;;;11.63;9.00;;;13.80;99.90;;;;;;5040902;28;20502;-81
2023/08/27 04:54:09;;;;;;;10.02;7.85;;;13.70;99.90;;;;;;5034869;28;20069;-81
2023/08/27 04:56:35;;;;;;;11.05;7.45;;;13.70;99.90;;;;;;5051116;28;20045;-80
2023/08/27 04:59:00;;;;;;;9.77;7.63;;;13.70;99.90;;;;;;5049772;28;20064;-80
2023/08/27 05:01:26;;;;;;;11.80;9.00;;;13.70;99.90;;;;;;5050138;28;20040;-80
2023/08/27 05:03:52;;;;;;;11.55;9.35;;;13.70;99.90;;;;;;5057644;28;20052;-81
2023/08/27 05:06:17;;;;;;;13.43;9.70;;;13.70;99.90;;;;;;5053107;28;20080;-80
2023/08/27 05:08:43;;;;;;;11.80;9.93;;;13.80;99.90;;;;;;5053098;28;20050;-80
2023/08/27 05:11:10;;;;;;;9.63;7.97;;;13.70;99.90;;;;;;5038635;28;20090;-80
2023/08/27 05:13:37;;;;;;;11.32;8.93;;;13.70;99.90;;;;;;5065787;28;20059;-81
2023/08/27 05:16:03;;;;;;;11.57;10.00;;;13.70;99.90;;;;;;5064639;28;20041;-80
2023/08/27 05:18:29;;;;;;;8.90;7.38;;;13.70;99.90;;;;;;5054398;28;20367;-80
2023/08/27 05:20:54;;;;;;;12.85;7.75;;;13.70;99.90;;;;;;5057930;28;20051;-80
2023/08/27 05:23:22;;;;;;;10.30;8.10;;;13.70;99.90;;;;;;5063162;28;20120;-81
2023/08/27 05:25:48;;;;;;;12.52;9.57;;;13.60;99.90;;;;;;5042855;28;20080;-83
2023/08/27 05:28:14;;;;;;;13.93;8.82;;;13.60;99.90;;;;;;5053423;28;20064;-81
2023/08/27 05:30:44;;;;;;;12.02;9.48;;;13.60;99.90;;;;;;5049275;28;20040;-82
2023/08/27 05:33:10;;;;;;;12.95;9.35;;;13.60;99.90;;;;;;5055891;28;20117;-80
2023/08/27 05:35:35;;;;;;;11.15;8.93;;;13.60;99.90;;;;;;5048140;28;20112;-86
2023/08/27 05:38:01;;;;;;;10.95;9.18;;;13.70;99.90;;;;;;5033562;28;20068;-81
2023/08/27 05:40:27;;;;;;;11.40;9.07;;;13.70;99.90;;;;;;5053330;28;20103;-81
2023/08/27 05:42:52;;;;;;;14.05;8.75;;;13.70;99.90;;;;;;5049113;28;20509;-81
2023/08/27 05:45:18;;;;;;;9.38;8.20;;;13.70;99.90;;;;;;5072110;28;20051;-81
2023/08/27 05:47:44;;;;;;;13.55;9.02;;;13.70;99.90;;;;;;5038850;28;20060;-80
2023/08/27 05:50:10;;;;;;;11.27;9.30;;;13.80;99.90;;;;;;5051828;28;20041;-81
2023/08/27 05:52:36;;;;;;;11.27;9.32;;;13.80;99.90;;;;;;5052999;28;20507;-81
2023/08/27 05:55:02;;;;;;;11.90;8.75;;;13.80;99.90;;;;;;5049726;28;20091;-80
2023/08/27 05:57:27;;;;;;;12.13;8.73;;;13.80;99.90;;;;;;5050954;28;20045;-85
2023/08/27 05:59:53;;;;;;;13.00;9.30;;;13.90;99.90;;;;;;5053189;28;20037;-87
2023/08/27 06:02:19;;;;;;;13.55;9.43;;;13.90;99.90;;;;;;5047606;28;20110;-86
2023/08/27 06:04:45;;;;;;;14.23;9.30;;;14.00;99.90;;;;;;5055789;28;20069;-87
2023/08/27 06:07:11;;;;;;;12.15;9.70;;;14.00;99.90;;;;;;5049542;28;20517;-87
2023/08/27 06:09:37;;;;;;;13.30;9.70;;;14.10;99.90;;;;;;5052634;28;20392;-86
2023/08/27 06:12:04;;;;;;;10.68;8.95;;;14.10;99.90;;;;;;5069894;28;20029;-86
2023/08/27 06:14:29;;;;;;;11.65;7.90;;;14.10;99.90;;;;;;5054668;28;20029;-87
2023/08/27 06:16:55;;;;;;;10.95;8.82;;;14.20;99.90;;;;;;5049481;28;20495;-88
2023/08/27 06:19:21;;;;;;;11.35;8.57;;;14.20;99.90;;;;;;5037795;28;20499;-86
2023/08/27 06:21:47;;;;;;;11.68;8.60;;;14.30;99.90;;;;;;5082612;28;20041;-87
2023/08/27 06:24:12;;;;;;;10.50;7.78;;;14.30;99.90;;;;;;5055041;28;20112;-87
2023/08/27 06:26:38;;;;;;;9.73;6.95;;;14.30;99.90;;;;;;5052862;28;20129;-87
2023/08/27 06:29:05;;;;;;;13.10;8.25;;;14.20;99.90;;;;;;5056216;28;20037;-87
2023/08/27 06:31:32;;;;;;;11.10;8.48;;;14.20;99.90;;;;;;5074832;28;20029;-87
2023/08/27 06:33:57;;;;;;;12.07;8.00;;;14.20;99.90;;;;;;5035449;28;20029;-85
2023/08/27 06:36:23;;;;;;;11.27;7.78;;;14.30;99.90;;;;;;5036555;28;20033;-87
2023/08/27 06:38:49;;;;;;;7.85;6.07;;;14.20;99.90;;;;;;5056293;28;20036;-88
2023/08/27 06:41:14;;;;;;;11.90;8.15;;;14.10;99.90;;;;;;5049092;28;20041;-86
2023/08/27 06:43:40;;;;;;;12.63;7.70;;;14.20;99.90;;;;;;5043716;28;20037;-85
2023/08/27 06:46:05;;;;;;;12.95;7.78;;;14.20;99.90;;;;;;5057979;28;20037;-87
2023/08/27 06:48:32;;;;;;;9.32;6.88;;;14.20;99.90;;;;;;5058765;28;20033;-88
2023/08/27 06:50:58;;;;;;;14.90;9.18;;;14.20;99.90;;;;;;5045558;28;20052;-87
2023/08/27 06:53:23;;;;;;;11.50;7.85;;;14.20;99.90;;;;;;5063780;28;20037;-87
2023/08/27 06:55:49;;;;;;;10.80;7.80;;;14.20;99.90;;;;;;5068845;28;20124;-87
2023/08/27 06:58:15;;;;;;;10.90;7.47;;;14.20;99.90;;;;;;5055389;28;20029;-85
2023/08/27 07:00:40;;;;;;;13.23;7.15;;;14.20;99.90;;;;;;5054234;28;20068;-85
2023/08/27 07:03:06;;;;;;;11.98;7.10;;;14.30;99.90;;;;;;5056763;28;20453;-84
2023/08/27 07:05:33;;;;;;;10.40;7.93;;;14.30;99.90;;;;;;5055874;28;20076;-84
2023/08/27 07:07:59;;;;;;;11.65;7.65;;;14.30;99.90;;;;;;5064417;28;20045;-87
2023/08/27 07:10:25;;;;;;;10.20;7.30;;;14.30;99.90;;;;;;5061336;28;20376;-89
2023/08/27 07:12:50;;;;;;;10.98;7.43;;;14.30;99.90;;;;;;5060873;28;20036;-90
2023/08/27 07:15:16;;;;;;;9.93;7.30;;;14.30;99.90;;;;;;5052926;28;20036;-85
2023/08/27 07:17:42;;;;;;;9.55;6.28;;;14.30;99.90;;;;;;5063777;28;20049;-85
2023/08/27 07:20:09;;;;;;;8.77;6.28;;;14.30;99.90;;;;;;5053194;28;20048;-86
2023/08/27 07:22:35;;;;;;;10.00;7.38;;;14.40;99.90;;;;;;5053027;28;20041;-85
2023/08/27 07:25:00;;;;;;;10.98;6.00;;;14.40;99.90;;;;;;5065133;28;20369;-86
2023/08/27 07:27:26;;;;;;;9.68;5.40;;;14.40;99.90;;;;;;5055678;28;20033;-85
2023/08/27 07:29:52;;;;;;;8.45;4.90;;;14.40;99.90;;;;;;5058897;28;20056;-86
2023/08/27 07:32:19;;;;;;;9.15;5.93;;;14.40;99.90;;;;;;5070661;28;20032;-86
2023/08/27 07:34:44;;;;;;;9.95;6.15;;;14.40;99.90;;;;;;5066732;28;20110;-85
2023/08/27 07:37:10;;;;;;;8.20;4.93;;;14.50;99.90;;;;;;5070737;28;20037;-85
2023/08/27 07:39:35;;;;;;;10.32;4.95;;;14.50;99.90;;;;;;5062549;28;20146;-85
2023/08/27 07:42:02;;;;;;;8.85;4.60;;;14.50;99.90;;;;;;5061199;28;20415;-86
2023/08/27 07:44:28;;;;;;;6.38;4.35;;;14.50;99.90;;;;;;5058180;28;20567;-86
2023/08/27 07:46:54;;;;;;;7.15;4.20;;;14.50;99.90;;;;;;5087893;28;20065;-85
2023/08/27 07:49:19;;;;;;;6.40;3.78;;;14.50;99.90;;;;;;5051897;28;20071;-85
2023/08/27 07:51:46;;;;;;;7.35;4.15;;;14.50;99.90;;;;;;5052185;28;20075;-85
2023/08/27 07:54:11;;;;;;;6.60;4.60;;;14.50;99.90;;;;;;5050220;28;20086;-86
2023/08/27 07:56:37;;;;;;;8.13;5.03;;;14.70;99.90;;;;;;5051627;28;20033;-85
2023/08/27 07:59:03;;;;;;;9.45;4.25;;;14.60;99.90;;;;;;5085946;28;20045;-87
2023/08/27 08:01:28;;;;;;;8.50;4.50;;;14.70;99.90;;;;;;5052031;28;20071;-85
2023/08/27 08:03:54;;;;;;;5.60;3.90;;;14.80;99.90;;;;;;5052863;28;20415;-85
2023/08/27 08:06:19;;;;;;;8.27;4.45;;;14.80;99.90;;;;;;5053498;28;20063;-86
2023/08/27 08:08:45;;;;;;;7.22;3.78;;;14.80;99.90;;;;;;5050241;28;20037;-85
2023/08/27 08:11:11;;;;;;;6.50;3.20;;;14.80;99.90;;;;;;5044976;28;20036;-85
2023/08/27 08:13:39;;;;;;;5.97;3.15;;;14.80;99.90;;;;;;5053518;28;20055;-85
2023/08/27 08:16:05;;;;;;;6.25;3.47;;;14.80;99.90;;;;;;5085127;28;20099;-85
2023/08/27 08:18:31;;;;;;;4.65;3.00;;;14.80;99.90;;;;;;5057342;28;20037;-86
2023/08/27 08:20:58;;;;;;;5.03;2.90;;;14.90;99.90;;;;;;5086479;28;20076;-86
2023/08/27 08:23:25;;;;;;;4.63;2.85;;;14.90;99.90;;;;;;5060469;28;20048;-86
2023/08/27 08:25:51;;;;;;;5.55;2.85;;;15.00;99.90;;;;;;5056870;28;20506;-85
2023/08/27 08:28:17;;;;;;;4.55;2.40;;;14.90;99.90;;;;;;5055299;28;20032;-86
2023/08/27 08:30:48;;;;;;;5.53;2.70;;;15.10;99.90;;;;;;5054713;28;20041;-86
2023/08/27 08:33:17;;;;;;;5.32;2.47;;;15.10;99.90;;;;;;5051608;28;20162;-86
2023/08/27 08:35:44;;;;;;;5.43;2.70;;;15.20;99.90;;;;;;5051743;28;20033;-87
2023/08/27 08:38:09;;;;;;;6.97;3.00;;;15.50;99.90;;;;;;5072060;28;20121;-86
2023/08/27 08:40:42;;;;;;;5.70;3.00;;;15.40;99.90;;;;;;5058267;28;20471;-88
2023/08/27 08:43:17;;;;;;;6.13;3.70;;;15.50;99.90;;;;;;5035404;28;20044;-86
2023/08/27 08:46:10;;;;;;;5.53;3.50;;;15.80;99.90;;;;;;5053485;28;20037;-88
2023/08/27 08:48:39;;;;;;;7.90;3.65;;;15.80;99.90;;;;;;5055432;28;20040;-89
2023/08/27 08:51:06;;;;;;;7.10;3.42;;;15.90;99.90;;;;;;5074029;28;20372;-88
2023/08/27 08:53:39;;;;;;;5.05;2.78;;;16.00;99.90;;;;;;5047459;28;20075;-86
2023/08/27 08:56:08;;;;;;;7.38;3.33;;;16.20;99.90;;;;;;5054784;28;20047;-86
2023/08/27 08:58:36;;;;;;;5.72;3.20;;;16.30;99.90;;;;;;5078474;28;20110;-86
2023/08/27 09:01:04;;;;;;;5.93;3.20;;;16.40;99.90;;;;;;5059373;28;20052;-86
2023/08/27 09:03:31;;;;;;;4.70;2.75;;;16.50;99.90;;;;;;5084029;28;20079;-86
2023/08/27 09:05:58;;;;;;;4.68;3.00;;;16.60;99.90;;;;;;5050771;28;20518;-86
2023/08/27 09:08:24;;;;;;;5.22;3.30;;;16.70;99.90;;;;;;5049818;28;20124;-85
2023/08/27 09:10:50;;;;;;;6.25;2.85;;;16.80;99.90;;;;;;5052316;28;20288;-84
2023/08/27 09:13:20;;;;;;;5.32;2.70;;;16.90;99.90;;;;;;5031541;28;20444;-86
2023/08/27 09:15:47;;;;;;;7.63;2.80;;;17.00;99.90;;;;;;5043541;28;20116;-86
2023/08/27 09:18:14;;;;;;;4.90;2.20;;;17.10;99.90;;;;;;5037754;28;20032;-86
2023/08/27 09:20:39;;;;;;;5.63;2.30;;;17.10;99.90;;;;;;5059538;28;20094;-85
2023/08/27 09:23:08;;;;;;;4.90;2.63;;;17.30;99.90;;;;;;5041074;28;20037;-88
2023/08/27 09:25:38;;;;;;;5.50;2.30;;;17.40;99.90;;;;;;5053542;28;20654;-89
2023/08/27 09:28:05;;;;;;;5.85;2.22;;;17.50;99.90;;;;;;5062476;28;20049;-88
2023/08/27 09:30:31;;;;;;;4.15;1.98;;;17.60;99.90;;;;;;5057254;28;20411;-89
2023/08/27 09:32:57;;;;;;;4.93;1.80;;;17.60;99.90;;;;;;5042511;28;20112;-88
2023/08/27 09:35:23;;;;;;;4.88;1.95;;;17.70;99.90;;;;;;5043639;28;20110;-90
2023/08/27 09:37:49;;;;;;;4.15;1.77;;;17.80;99.90;;;;;;5050939;28;20763;-88
2023/08/27 09:40:16;;;;;;;3.20;1.48;;;17.90;99.90;;;;;;5042665;28;20391;-88
2023/08/27 09:42:43;;;;;;;2.80;1.40;;;18.00;99.90;;;;;;5043559;28;20048;-87
2023/08/27 09:45:09;;;;;;;4.85;1.58;;;18.10;99.90;;;;;;5055279;28;20147;-90
2023/08/27 09:47:38;;;;;;;4.70;1.35;;;18.10;99.90;;;;;;5053568;28;20048;-86
2023/08/27 09:50:06;;;;;;;4.45;1.42;;;18.30;99.90;;;;;;5057499;28;20044;-89
2023/08/27 09:52:32;;;;;;;2.58;1.10;;;18.40;99.90;;;;;;5050270;28;20093;-89
2023/08/27 09:54:58;;;;;;;4.63;1.42;;;18.60;99.90;;;;;;5067356;28;20036;-89
2023/08/27 09:57:24;;;;;;;3.00;1.40;;;18.70;99.90;;;;;;5050237;28;20187;-88
2023/08/27 09:59:50;;;;;;;2.55;1.27;;;18.80;99.90;;;;;;5081694;28;20664;-89
2023/08/27 10:02:16;;;;;;;4.07;1.60;;;19.00;99.90;;;;;;5053693;28;20041;-87
2023/08/27 10:04:56;;;;;;;3.03;1.30;;;19.10;99.90;;;;;;5036305;28;20062;-87
2023/08/27 10:07:22;;;;;;;2.88;1.35;;;19.20;99.90;;;;;;5054313;28;20140;-88
2023/08/27 10:09:50;;;;;;;2.55;1.00;;;19.30;99.90;;;;;;5060252;28;20438;-87
2023/08/27 10:12:16;;;;;;;2.45;0.90;;;19.30;99.90;;;;;;5032977;28;20048;-86
2023/08/27 10:14:44;;;;;;;4.60;1.20;;;19.30;99.90;;;;;;5057714;28;20265;-86
2023/08/27 10:17:11;;;;;;;2.88;1.27;;;19.40;99.90;;;;;;5034073;28;20049;-86
2023/08/27 10:19:36;;;;;;;3.55;1.67;;;19.40;99.90;;;;;;5052005;28;20123;-86
2023/08/27 10:22:03;;;;;;;3.15;1.20;;;19.30;99.90;;;;;;5042345;28;20940;-86
2023/08/27 10:24:30;;;;;;;4.55;1.40;;;19.30;99.90;;;;;;5033374;28;20073;-86
2023/08/27 10:27:03;;;;;;;3.95;1.30;;;19.30;99.90;;;;;;5047155;28;20040;-85
2023/08/27 10:29:30;;;;;;;4.15;1.67;;;19.30;99.90;;;;;;5080412;28;20112;-86
2023/08/27 10:31:56;;;;;;;4.97;1.42;;;19.30;99.90;;;;;;5051478;28;20481;-85
2023/08/27 10:34:23;;;;;;;4.90;2.08;;;19.40;99.90;;;;;;5043694;28;20496;-85
2023/08/27 10:36:51;;;;;;;6.30;1.83;;;19.40;99.90;;;;;;5041595;28;20040;-85
2023/08/27 10:39:25;;;;;;;5.38;1.80;;;19.40;99.90;;;;;;5050035;28;20095;-86
2023/08/27 10:41:51;;;;;;;4.40;1.77;;;19.40;99.90;;;;;;5056603;28;20036;-86
2023/08/27 10:44:21;;;;;;;5.57;1.75;;;19.60;99.90;;;;;;5048014;28;20376;-86
2023/08/27 10:47:17;;;;;;;3.70;1.70;;;19.80;99.90;;;;;;5053116;28;20452;-85
2023/08/27 10:49:47;;;;;;;4.72;1.75;;;20.00;99.90;;;;;;5083323;28;20033;-86
2023/08/27 10:52:26;;;;;;;6.13;2.13;;;20.10;99.90;;;;;;5050302;28;20112;-86
2023/08/27 10:55:00;;;;;;;3.45;1.85;;;20.10;99.90;;;;;;5047190;28;20032;-86
2023/08/27 10:57:25;;;;;;;4.53;1.50;;;20.20;99.90;;;;;;5049274;28;20156;-85
2023/08/27 11:00:05;;;;;;;4.35;1.48;;;20.30;99.90;;;;;;5051062;28;20115;-86
2023/08/27 11:03:10;;;;;;;5.05;1.80;;;20.40;99.90;;;;;;5082774;28;20070;-83
2023/08/27 11:05:35;;;;;;;2.83;1.40;;;20.40;99.90;;;;;;5042415;28;20052;-83
2023/08/27 11:08:15;;;;;;;4.47;1.50;;;20.30;99.90;;;;;;5062498;28;20110;-83
2023/08/27 11:10:41;;;;;;;4.88;1.50;;;20.20;99.90;;;;;;5089182;28;20064;-82
2023/08/27 11:13:36;;;;;;;3.85;1.50;;;20.10;99.90;;;;;;5056158;28;20065;-82
2023/08/27 11:16:11;;;;;;;5.18;1.58;;;20.00;99.90;;;;;;5049331;28;20123;-82
2023/08/27 11:18:56;;;;;;;5.25;1.70;;;19.90;99.90;;;;;;5087584;28;20502;-82
2023/08/27 11:21:25;;;;;;;;;;;19.80;99.90;;;;;;5055678;28;20045;-82
2023/08/27 11:24:16;;;;;;;3.38;1.58;;;19.70;99.90;;;;;;5057047;28;20006;-85
2023/08/27 11:26:43;;;;;;;5.88;1.73;;;19.60;99.90;;;;;;5072006;28;20153;-85
2023/08/27 11:29:10;;;;;;;5.10;1.85;;;19.50;99.90;;;;;;5054108;28;20511;-85
2023/08/27 11:31:44;;;;;;;4.22;2.15;;;19.40;99.90;;;;;;5054405;28;20056;-85
2023/08/27 11:34:15;;;;;;;4.57;2.15;;;19.30;99.90;;;;;;5055581;28;20041;-85
2023/08/27 11:36:42;;;;;;;3.30;1.83;;;19.20;99.90;;;;;;5052137;28;20052;-85
2023/08/27 11:39:12;;;;;;;4.80;2.30;;;19.10;99.90;;;;;;5058655;28;20049;-85
2023/08/27 11:41:41;;;;;;;6.10;2.47;;;19.20;99.90;;;;;;5041358;28;20045;-85
2023/08/27 11:44:08;;;;;;;5.18;1.88;;;19.40;99.90;;;;;;5034878;28;20044;-86
2023/08/27 11:46:34;;;;;;;4.43;1.60;;;19.50;99.90;;;;;;5054865;28;20052;-86
2023/08/27 11:49:00;;;;;;;4.10;1.42;;;19.70;99.90;;;;;;5039774;28;20048;-85
2023/08/27 11:51:26;;;;;;;3.17;1.45;;;19.80;99.90;;;;;;5056814;28;20146;-85
2023/08/27 11:53:52;;;;;;;4.82;1.67;;;19.90;99.90;;;;;;5089140;28;20107;-86
2023/08/27 11:56:19;;;;;;;3.15;1.60;;;19.90;99.90;;;;;;5034792;28;20513;-83
2023/08/27 11:58:52;;;;;;;5.63;1.75;;;19.90;99.90;;;;;;5039711;28;20041;-82
2023/08/27 12:01:22;;;;;;;5.93;2.03;;;19.80;99.90;;;;;;5066757;28;20032;-83
2023/08/27 12:03:51;;;;;;;3.80;2.10;;;19.80;99.90;;;;;;5050497;28;20052;-82
2023/08/27 12:06:17;;;;;;;8.15;2.83;;;19.70;99.90;;;;;;5052711;28;20043;-83
2023/08/27 12:08:48;;;;;;;5.60;2.88;;;19.60;99.90;;;;;;5052899;28;20150;-83
2023/08/27 12:11:14;;;;;;;6.75;3.20;;;19.50;99.90;;;;;;5051653;28;20495;-83
2023/08/27 12:13:42;;;;;;;8.95;4.07;;;19.40;99.90;;;;;;5051834;28;20727;-83
2023/08/27 12:16:08;;;;;;;6.32;3.45;;;19.30;99.90;;;;;;5057087;28;20040;-83
2023/08/27 12:18:38;;;;;;;10.23;5.18;;;19.30;99.90;;;;;;5054180;28;20036;-83
2023/08/27 12:21:06;;;;;;;8.85;4.13;;;19.30;99.90;;;;;;5072571;28;20040;-81
2023/08/27 12:23:33;;;;;;;6.10;3.45;;;19.30;99.90;;;;;;5056148;28;20040;-83
2023/08/27 12:26:02;;;;;;;7.10;4.20;;;19.20;99.90;;;;;;5058124;28;20067;-83
2023/08/27 12:28:28;;;;;;;6.40;3.03;;;19.20;99.90;;;;;;5062372;28;20072;-82
2023/08/27 12:30:57;;;;;;;4.82;2.60;;;19.10;99.90;;;;;;5055525;28;20492;-82
2023/08/27 12:33:37;;;;;;;6.00;2.58;;;19.00;99.90;;;;;;5036401;28;20033;-82
2023/08/27 12:36:07;;;;;;;4.18;2.08;;;18.80;99.90;;;;;;5083676;28;20079;-82
2023/08/27 12:38:33;;;;;;;5.32;2.30;;;18.70;99.90;;;;;;5052555;28;20415;-82
2023/08/27 12:41:00;;;;;;;5.70;1.60;;;18.60;99.90;;;;;;5055610;28;20045;-82